Time;durP1;ratioP1;P1;durP2;ratioP2;P2;SDS_P1;SDS_P2;PMS_P1;PMS_P2;Temp;Humidity;BMP_temperature;BMP_pressure;BME280_temperature;BME280_humidity;BME280_pressure;Samples;Min_cycle;Max_cycle;Signal;HPM_P1;HPM_P2
2021/01/05 00:02:13;;;;;;;16.00;11.50;;;4.80;99.90;;;;;;5053089;28;20574;-67
2021/01/05 00:04:39;;;;;;;19.60;12.20;;;4.90;99.90;;;;;;5053039;28;20178;-67
2021/01/05 00:07:06;;;;;;;17.17;11.07;;;4.80;99.90;;;;;;5052924;28;20174;-67
2021/01/05 00:09:31;;;;;;;18.20;12.97;;;4.90;99.90;;;;;;5052925;28;20521;-67
2021/01/05 00:12:06;;;;;;;16.67;12.77;;;4.90;99.90;;;;;;5052907;28;20450;-67
2021/01/05 00:14:32;;;;;;;15.77;11.07;;;4.90;99.90;;;;;;5052778;28;20221;-67
2021/01/05 00:16:57;;;;;;;19.87;12.33;;;5.00;99.90;;;;;;5052849;28;20469;-67
2021/01/05 00:19:24;;;;;;;17.10;11.40;;;5.10;99.90;;;;;;5052721;28;20250;-67
2021/01/05 00:21:50;;;;;;;19.70;12.50;;;5.00;99.90;;;;;;5052800;28;20167;-67
2021/01/05 00:24:16;;;;;;;21.23;13.67;;;4.90;99.90;;;;;;5052581;28;20498;-67
2021/01/05 00:26:41;;;;;;;17.83;13.13;;;4.80;99.90;;;;;;5052673;28;20418;-67
2021/01/05 00:29:08;;;;;;;17.13;12.83;;;4.80;99.90;;;;;;5052482;28;20177;-67
2021/01/05 00:31:34;;;;;;;15.60;11.80;;;4.80;99.90;;;;;;5052629;28;20634;-67
2021/01/05 00:34:00;;;;;;;15.60;10.80;;;4.80;99.90;;;;;;5062769;28;20441;-68
2021/01/05 00:36:26;;;;;;;17.20;13.03;;;5.00;99.90;;;;;;5071496;28;20668;-68
2021/01/05 00:38:51;;;;;;;18.13;12.23;;;4.90;99.90;;;;;;5061592;28;20249;-68
2021/01/05 00:41:19;;;;;;;20.07;15.30;;;4.80;99.90;;;;;;5053875;28;20434;-67
2021/01/05 00:43:46;;;;;;;16.80;11.90;;;4.80;99.90;;;;;;5060143;28;20643;-67
2021/01/05 00:46:11;;;;;;;14.63;11.37;;;4.90;99.90;;;;;;5052153;28;20516;-68
2021/01/05 00:48:37;;;;;;;16.47;11.63;;;4.90;99.90;;;;;;5052370;28;20468;-68
2021/01/05 00:51:03;;;;;;;18.00;11.70;;;4.90;99.90;;;;;;5053679;28;20178;-68
2021/01/05 00:53:29;;;;;;;19.00;12.23;;;4.90;99.90;;;;;;5061102;28;20641;-68
2021/01/05 00:55:54;;;;;;;17.80;12.67;;;5.00;99.90;;;;;;5056849;28;20467;-68
2021/01/05 00:58:23;;;;;;;21.10;13.10;;;5.00;99.90;;;;;;5051597;28;20207;-68
2021/01/05 01:00:52;;;;;;;17.80;13.13;;;5.00;99.90;;;;;;5051920;28;20184;-68
2021/01/05 01:03:18;;;;;;;15.90;12.00;;;4.80;99.90;;;;;;5052226;28;20523;-68
2021/01/05 01:05:44;;;;;;;15.60;10.93;;;4.70;99.90;;;;;;5051651;28;20441;-68
2021/01/05 01:08:11;;;;;;;21.10;12.63;;;4.70;99.90;;;;;;5051419;28;20942;-68
2021/01/05 01:10:38;;;;;;;16.33;12.00;;;4.70;99.90;;;;;;5051671;28;20835;-68
2021/01/05 01:13:07;;;;;;;16.60;12.43;;;4.70;99.90;;;;;;5051666;28;20807;-69
2021/01/05 01:15:34;;;;;;;16.40;11.27;;;4.80;99.90;;;;;;5055374;28;20630;-68
2021/01/05 01:17:59;;;;;;;19.13;12.23;;;4.70;99.90;;;;;;5051586;28;20942;-68
2021/01/05 01:20:25;;;;;;;18.87;13.67;;;4.70;99.90;;;;;;5051792;28;20477;-68
2021/01/05 01:22:50;;;;;;;16.10;12.33;;;4.80;99.90;;;;;;5061147;28;20187;-68
2021/01/05 01:25:16;;;;;;;17.23;11.90;;;4.80;99.90;;;;;;5069849;28;20640;-68
2021/01/05 01:27:42;;;;;;;18.00;11.97;;;4.90;99.90;;;;;;5069838;28;20565;-68
2021/01/05 01:30:09;;;;;;;15.37;10.47;;;4.80;99.90;;;;;;5071054;28;20942;-68
2021/01/05 01:32:35;;;;;;;21.03;11.13;;;4.80;99.90;;;;;;5071741;28;20263;-68
2021/01/05 01:35:01;;;;;;;13.77;10.07;;;4.80;99.90;;;;;;5071919;28;21004;-69
2021/01/05 01:37:26;;;;;;;19.20;12.40;;;4.80;99.90;;;;;;5071716;28;20274;-68
2021/01/05 01:39:52;;;;;;;16.40;12.03;;;4.70;99.90;;;;;;5071885;28;20221;-72
2021/01/05 01:42:19;;;;;;;18.43;11.80;;;4.70;99.90;;;;;;5071925;28;20625;-72
2021/01/05 01:44:47;;;;;;;19.10;12.20;;;4.70;99.90;;;;;;5071823;28;20272;-72
2021/01/05 01:47:18;;;;;;;17.37;12.00;;;4.70;99.90;;;;;;5071792;28;20506;-72
2021/01/05 01:49:57;;;;;;;19.80;12.97;;;4.70;99.90;;;;;;5071795;28;20455;-72
2021/01/05 01:52:55;;;;;;;20.93;12.93;;;4.80;99.90;;;;;;5071747;28;21060;-72
2021/01/05 01:55:37;;;;;;;18.33;12.40;;;4.70;99.90;;;;;;5066650;28;20492;-72
2021/01/05 01:58:40;;;;;;;18.07;12.20;;;4.70;99.90;;;;;;5071486;28;20476;-73
2021/01/05 02:01:17;;;;;;;18.03;11.30;;;4.80;99.90;;;;;;5071532;28;20474;-73
2021/01/05 02:04:05;;;;;;;20.63;12.77;;;4.80;99.90;;;;;;5071707;28;20413;-73
2021/01/05 02:06:39;;;;;;;18.43;11.97;;;4.70;99.90;;;;;;5072990;28;20822;-72
2021/01/05 06:31:14;;;;;;;29.10;14.30;;;4.80;99.90;;;;;;5696123;22;20579;-76
2021/01/05 06:33:39;;;;;;;31.03;17.63;;;4.90;99.90;;;;;;5035785;28;20513;-76
2021/01/05 06:36:05;;;;;;;25.23;13.77;;;4.80;99.90;;;;;;5035718;28;20193;-76
2021/01/05 06:38:31;;;;;;;25.30;14.70;;;4.80;99.90;;;;;;5035570;28;20266;-75
2021/01/05 06:40:56;;;;;;;22.80;13.27;;;5.00;99.90;;;;;;5035735;28;20863;-75
2021/01/05 06:43:22;;;;;;;28.17;15.37;;;5.00;99.90;;;;;;5035590;28;20176;-75
2021/01/05 06:45:48;;;;;;;27.63;14.60;;;5.10;99.90;;;;;;5035596;28;20248;-75
2021/01/05 06:48:13;;;;;;;31.20;16.23;;;5.00;99.90;;;;;;5035509;28;20171;-75
2021/01/05 06:50:39;;;;;;;25.83;15.33;;;4.80;99.90;;;;;;5035541;28;20658;-75
2021/01/05 06:53:04;;;;;;;23.23;15.60;;;4.80;99.90;;;;;;5035123;28;20183;-76
2021/01/05 06:55:30;;;;;;;28.00;15.13;;;4.80;99.90;;;;;;5035151;28;20760;-75
2021/01/05 06:57:56;;;;;;;25.73;14.53;;;4.90;99.90;;;;;;5035411;28;20546;-76
2021/01/05 07:00:25;;;;;;;22.40;14.83;;;4.90;99.90;;;;;;5035215;28;20855;-75
2021/01/05 07:02:51;;;;;;;25.80;15.63;;;4.80;99.90;;;;;;5035323;28;20175;-74
2021/01/05 07:05:17;;;;;;;25.90;15.40;;;4.80;99.90;;;;;;5035198;28;20458;-74
2021/01/05 07:07:43;;;;;;;24.60;13.83;;;4.80;99.90;;;;;;5035154;28;20425;-73
2021/01/05 07:10:10;;;;;;;28.70;15.10;;;4.80;99.90;;;;;;5035060;28;20440;-71
2021/01/05 07:12:35;;;;;;;23.27;15.47;;;4.80;99.90;;;;;;5035176;28;20477;-71
2021/01/05 07:15:02;;;;;;;24.07;13.00;;;4.90;99.90;;;;;;5034896;28;20429;-71
2021/01/05 07:17:28;;;;;;;27.20;16.40;;;4.90;99.90;;;;;;5034879;28;20187;-71
2021/01/05 07:19:53;;;;;;;33.83;16.77;;;4.90;99.90;;;;;;5035140;28;20478;-72
2021/01/05 07:22:19;;;;;;;24.07;14.33;;;5.00;99.90;;;;;;5034882;28;20201;-71
2021/01/05 07:24:44;;;;;;;24.77;15.17;;;5.00;99.90;;;;;;5034785;28;20659;-71
2021/01/05 07:27:10;;;;;;;27.53;15.47;;;5.00;99.90;;;;;;5034716;28;20190;-72
2021/01/05 08:13:38;;;;;;;30.43;16.23;;;5.10;99.90;;;;;;4390154;22;20584;-70
2021/01/05 08:16:04;;;;;;;32.60;15.90;;;5.10;99.90;;;;;;5084976;28;20484;-71
2021/01/05 08:18:29;;;;;;;29.67;14.70;;;5.10;99.90;;;;;;5075408;28;20259;-69
2021/01/05 08:20:55;;;;;;;30.30;15.80;;;5.00;99.90;;;;;;5072661;28;21016;-71
2021/01/05 08:23:20;;;;;;;33.53;17.50;;;5.00;99.90;;;;;;5072954;28;20655;-70
2021/01/05 08:29:08;;;;;;;31.70;16.33;;;5.10;99.90;;;;;;5080463;28;20164;-71
2021/01/05 08:31:39;;;;;;;26.80;15.40;;;5.20;99.90;;;;;;5073895;28;20424;-71
2021/01/05 08:34:06;;;;;;;29.17;18.00;;;5.40;99.90;;;;;;5073989;28;20432;-70
2021/01/05 08:36:32;;;;;;;25.17;13.73;;;5.30;99.90;;;;;;5073928;28;20531;-70
2021/01/05 08:42:19;;;;;;;27.90;18.33;;;5.30;99.90;;;;;;5072707;28;20508;-72
2021/01/05 08:44:45;;;;;;;26.03;15.50;;;5.60;99.90;;;;;;5073830;28;20265;-75
2021/01/05 08:47:10;;;;;;;26.37;15.90;;;5.60;99.90;;;;;;5073478;28;20530;-76
2021/01/05 08:49:36;;;;;;;25.30;16.10;;;5.50;99.90;;;;;;5073478;28;20170;-79
2021/01/05 08:52:01;;;;;;;26.10;15.87;;;5.40;99.90;;;;;;5073492;28;20514;-79
2021/01/05 08:54:27;;;;;;;27.17;15.80;;;5.30;99.90;;;;;;5073763;28;20181;-74
2021/01/05 09:00:15;;;;;;;28.83;15.20;;;5.30;99.90;;;;;;5073282;28;20216;-76
2021/01/05 09:02:41;;;;;;;28.13;15.87;;;5.40;99.90;;;;;;5073296;28;20983;-77
2021/01/05 09:05:08;;;;;;;29.10;15.07;;;5.40;99.90;;;;;;5073521;28;20467;-77
2021/01/05 09:10:56;;;;;;;27.47;15.30;;;5.30;99.90;;;;;;5073269;28;20405;-76
2021/01/05 09:13:24;;;;;;;27.67;16.40;;;5.30;99.90;;;;;;5071958;28;20831;-77
2021/01/05 09:15:50;;;;;;;29.70;17.07;;;5.30;99.90;;;;;;5075532;28;20873;-78
2021/01/05 09:18:16;;;;;;;27.90;15.67;;;5.30;99.90;;;;;;5077494;28;20818;-77
2021/01/05 09:24:03;;;;;;;27.50;14.43;;;5.30;99.90;;;;;;5076899;28;20207;-75
2021/01/05 09:26:31;;;;;;;28.57;15.90;;;5.40;99.90;;;;;;5077400;28;20420;-77
2021/01/05 09:28:57;;;;;;;28.70;15.50;;;5.30;99.90;;;;;;5077416;28;20507;-77
2021/01/05 09:31:23;;;;;;;27.30;14.53;;;5.30;99.90;;;;;;5076942;28;20420;-75
2021/01/05 09:37:11;;;;;;;25.33;14.97;;;5.40;99.90;;;;;;5076989;28;21031;-78
2021/01/05 09:39:36;;;;;;;26.07;16.23;;;5.30;99.90;;;;;;5075563;28;20471;-78
2021/01/05 09:42:05;;;;;;;30.00;16.13;;;5.30;99.90;;;;;;5076759;28;20177;-77
2021/01/05 09:44:31;;;;;;;28.87;18.43;;;5.30;99.90;;;;;;5077032;28;20178;-76
2021/01/05 09:50:18;;;;;;;26.77;15.00;;;5.30;99.90;;;;;;5076298;28;20825;-76
2021/01/05 09:52:44;;;;;;;27.53;17.90;;;5.30;99.90;;;;;;5076175;28;20915;-76
2021/01/05 09:55:10;;;;;;;32.90;18.17;;;5.30;99.90;;;;;;5076490;28;20189;-76
2021/01/05 09:57:35;;;;;;;26.57;15.67;;;5.30;99.90;;;;;;5076190;28;20274;-77
2021/01/05 10:00:03;;;;;;;29.33;16.30;;;5.30;99.90;;;;;;5076084;28;20470;-77
2021/01/05 10:02:28;;;;;;;34.43;18.10;;;5.40;99.90;;;;;;5076414;28;20227;-77
2021/01/05 10:04:54;;;;;;;27.00;17.03;;;5.30;99.90;;;;;;5076690;28;20425;-76
2021/01/05 10:07:21;;;;;;;29.70;17.63;;;5.30;99.90;;;;;;5076553;28;20177;-76
2021/01/05 10:09:46;;;;;;;34.83;19.07;;;5.20;99.90;;;;;;5076692;28;20628;-76
2021/01/05 10:12:12;;;;;;;34.00;18.17;;;5.20;99.90;;;;;;5076348;28;20421;-77
2021/01/05 10:14:37;;;;;;;25.47;15.97;;;5.30;99.90;;;;;;5076355;28;20185;-76
2021/01/05 10:17:03;;;;;;;33.37;18.07;;;5.30;99.90;;;;;;5076536;28;20175;-77
2021/01/05 10:19:28;;;;;;;30.03;15.47;;;5.30;99.90;;;;;;5076159;28;20229;-77
2021/01/05 10:21:54;;;;;;;29.50;15.10;;;5.30;99.90;;;;;;5076583;28;20204;-76
2021/01/05 10:27:49;;;;;;;32.00;16.33;;;5.40;99.90;;;;;;5064793;28;20242;-75
2021/01/05 10:30:16;;;;;;;32.03;16.73;;;5.30;99.90;;;;;;5076036;28;20432;-75
2021/01/05 10:32:42;;;;;;;32.70;15.93;;;5.30;99.90;;;;;;5075468;28;20436;-73
2021/01/05 10:35:09;;;;;;;31.80;17.43;;;5.40;99.90;;;;;;5075796;28;20945;-74
2021/01/05 10:37:34;;;;;;;23.80;14.27;;;5.40;99.90;;;;;;5075958;28;20450;-74
2021/01/05 10:40:00;;;;;;;31.97;17.10;;;5.50;99.90;;;;;;5075831;28;20465;-74
2021/01/05 10:42:27;;;;;;;31.17;15.30;;;5.40;99.90;;;;;;5076068;28;20525;-75
2021/01/05 10:44:52;;;;;;;27.07;15.60;;;5.40;99.90;;;;;;5075827;28;20590;-74
2021/01/05 10:47:18;;;;;;;27.93;17.47;;;5.40;99.90;;;;;;5075663;28;20428;-74
2021/01/05 10:49:43;;;;;;;27.23;14.07;;;5.40;99.90;;;;;;5075739;28;20625;-74
2021/01/05 10:52:15;;;;;;;26.17;16.07;;;5.30;99.90;;;;;;5074299;28;20182;-74
2021/01/05 10:54:41;;;;;;;28.90;17.70;;;5.40;99.90;;;;;;5075426;28;20171;-74
2021/01/05 10:57:07;;;;;;;29.53;16.43;;;5.40;99.90;;;;;;5075431;28;20424;-74
2021/01/05 10:59:33;;;;;;;28.60;17.00;;;5.50;99.90;;;;;;5075562;28;20210;-74
2021/01/05 11:02:02;;;;;;;25.50;15.63;;;5.40;99.90;;;;;;5075482;28;20434;-73
2021/01/05 11:04:28;;;;;;;25.40;13.33;;;5.50;99.90;;;;;;5075634;28;20463;-78
2021/01/05 11:06:59;;;;;;;25.17;15.67;;;5.60;99.90;;;;;;5075202;28;20476;-78
2021/01/05 11:09:26;;;;;;;29.80;14.90;;;5.60;99.90;;;;;;5075450;28;20432;-79
2021/01/05 11:12:00;;;;;;;28.83;15.03;;;5.60;99.90;;;;;;5075510;28;20755;-79
2021/01/05 11:14:26;;;;;;;31.83;15.63;;;5.40;99.90;;;;;;5075675;28;20413;-79
2021/01/05 11:16:52;;;;;;;25.70;15.60;;;5.40;99.90;;;;;;5076023;28;20468;-79
2021/01/05 11:19:17;;;;;;;25.47;15.67;;;5.40;99.90;;;;;;5075163;28;20308;-78
2021/01/05 11:22:01;;;;;;;27.33;15.77;;;5.40;99.90;;;;;;5075159;28;20470;-74
2021/01/05 11:24:28;;;;;;;25.70;14.63;;;5.40;99.90;;;;;;5075085;28;20185;-79
2021/01/05 11:26:54;;;;;;;26.33;15.87;;;5.50;99.90;;;;;;5074615;28;20876;-79
2021/01/05 11:29:21;;;;;;;26.30;15.60;;;5.60;99.90;;;;;;5075015;28;20421;-79
2021/01/05 11:32:02;;;;;;;25.63;14.20;;;5.60;99.90;;;;;;5074715;28;20838;-78
2021/01/05 11:34:29;;;;;;;23.40;14.47;;;5.70;99.90;;;;;;5074709;28;20427;-74
2021/01/05 11:37:00;;;;;;;24.30;14.87;;;5.70;99.90;;;;;;5074915;28;20493;-73
2021/01/05 11:39:26;;;;;;;26.20;14.60;;;5.60;99.90;;;;;;5073731;28;20456;-73
2021/01/05 11:41:51;;;;;;;24.17;14.63;;;5.50;99.90;;;;;;5074719;28;20427;-74
2021/01/05 11:44:17;;;;;;;27.13;16.27;;;5.40;99.90;;;;;;5074714;28;20544;-73
2021/01/05 11:46:43;;;;;;;25.87;15.50;;;5.40;99.90;;;;;;5074705;28;20185;-73
2021/01/05 11:49:09;;;;;;;27.57;15.87;;;5.40;99.90;;;;;;5074387;28;20270;-73
2021/01/05 11:51:36;;;;;;;25.35;14.68;;;5.60;99.90;;;;;;5074109;28;20428;-79
2021/01/05 11:57:23;;;;;;;28.50;15.80;;;5.40;99.90;;;;;;5074272;28;20411;-78
2021/01/05 11:59:48;;;;;;;32.90;16.63;;;5.30;99.90;;;;;;5074328;28;20445;-76
2021/01/05 12:02:14;;;;;;;33.07;18.63;;;5.30;99.90;;;;;;5074445;28;20177;-76
2021/01/05 12:04:40;;;;;;;27.70;18.00;;;5.30;99.90;;;;;;5074311;28;20529;-76
2021/01/05 12:07:05;;;;;;;32.63;17.50;;;5.30;99.90;;;;;;5074336;28;20645;-76
2021/01/05 12:09:31;;;;;;;36.47;19.17;;;5.50;99.90;;;;;;5074364;28;20626;-75
2021/01/05 12:12:03;;;;;;;31.17;17.37;;;5.40;99.90;;;;;;5074266;28;20176;-76
2021/01/05 12:14:29;;;;;;;33.03;17.80;;;5.40;99.90;;;;;;5074097;28;20184;-75
2021/01/05 12:16:58;;;;;;;35.87;19.30;;;5.40;99.90;;;;;;5074200;28;20424;-76
2021/01/05 12:19:26;;;;;;;34.63;16.97;;;5.50;99.90;;;;;;5074059;28;20215;-76
2021/01/05 12:21:55;;;;;;;33.73;18.13;;;5.50;99.90;;;;;;5074270;28;20811;-75
2021/01/05 12:24:24;;;;;;;31.27;18.03;;;5.50;99.90;;;;;;5073948;28;20477;-76
2021/01/05 12:26:50;;;;;;;30.57;17.70;;;5.50;99.90;;;;;;5073748;28;20471;-76
2021/01/05 12:29:21;;;;;;;31.10;17.00;;;5.50;99.90;;;;;;5073925;28;20416;-76
2021/01/05 12:31:53;;;;;;;30.17;17.97;;;5.50;99.90;;;;;;5073627;28;20456;-76
2021/01/05 12:34:22;;;;;;;28.97;17.50;;;5.60;99.90;;;;;;5073928;28;20470;-76
2021/01/05 12:36:48;;;;;;;28.60;17.30;;;5.60;99.90;;;;;;5073669;28;20919;-75
2021/01/05 12:39:23;;;;;;;32.13;18.33;;;5.50;99.90;;;;;;5073421;28;20463;-76
2021/01/05 12:45:11;;;;;;;26.70;17.90;;;5.50;99.90;;;;;;5073465;28;20415;-76
2021/01/05 12:47:36;;;;;;;38.33;20.23;;;5.50;99.90;;;;;;5073503;28;20416;-79
2021/01/05 12:50:03;;;;;;;33.50;19.60;;;5.50;99.90;;;;;;5073974;28;20175;-80
2021/01/05 12:52:29;;;;;;;32.87;17.70;;;5.50;99.90;;;;;;5073300;28;20664;-79
2021/01/05 12:54:54;;;;;;;35.10;17.70;;;5.50;99.90;;;;;;5073379;28;20435;-79
2021/01/05 12:57:20;;;;;;;32.63;18.90;;;5.60;99.90;;;;;;5073366;28;20248;-78
2021/01/05 13:03:32;;;;;;;31.87;18.47;;;5.60;99.90;;;;;;5073379;28;20614;-78
2021/01/05 13:05:59;;;;;;;31.37;18.83;;;5.50;99.90;;;;;;5073624;28;20452;-77
2021/01/05 13:08:24;;;;;;;29.87;18.27;;;5.50;99.90;;;;;;5073516;28;20217;-82
2021/01/05 13:14:13;;;;;;;31.43;20.17;;;5.40;99.90;;;;;;5073029;28;20168;-67
2021/01/05 13:20:01;;;;;;;37.10;20.50;;;5.40;99.90;;;;;;5072856;28;20463;-67
2021/01/05 13:22:26;;;;;;;36.57;17.60;;;5.50;99.90;;;;;;5073157;28;20420;-68
2021/01/05 13:28:13;;;;;;;29.00;18.50;;;5.60;99.90;;;;;;5067425;28;20241;-67
2021/01/05 13:34:00;;;;;;;36.97;25.63;;;5.80;99.90;;;;;;5072829;28;20223;-65
2021/01/05 13:39:49;;;;;;;597.77;529.87;;;6.60;99.90;;;;;;5072537;28;20256;-66
2021/01/05 13:45:37;;;;;;;979.03;717.37;;;7.20;99.90;;;;;;5072509;28;20498;-67
2021/01/05 13:51:37;;;;;;;27.23;16.93;;;8.90;99.90;;;;;;5072674;28;20474;-65
2021/01/05 13:54:04;;;;;;;31.00;18.87;;;8.60;99.90;;;;;;5072739;28;20911;-66
2021/01/05 13:56:31;;;;;;;27.80;17.63;;;8.10;99.90;;;;;;5072635;28;20424;-66
2021/01/05 13:58:56;;;;;;;29.93;17.00;;;7.70;99.90;;;;;;5072508;28;20452;-66
2021/01/05 14:01:23;;;;;;;29.80;18.57;;;7.40;99.90;;;;;;5072954;28;20436;-65
2021/01/05 14:07:12;;;;;;;29.63;17.73;;;6.80;99.90;;;;;;5076150;28;20443;-66
2021/01/05 14:09:41;;;;;;;34.17;18.83;;;6.60;99.90;;;;;;5076083;28;20432;-66
2021/01/05 14:12:07;;;;;;;27.90;18.00;;;6.50;99.90;;;;;;5076322;28;20425;-71
2021/01/05 14:14:33;;;;;;;27.13;19.00;;;6.40;99.90;;;;;;5076329;28;20511;-65
2021/01/05 14:17:00;;;;;;;28.43;18.10;;;6.30;99.90;;;;;;5075950;28;20911;-65
2021/01/05 14:19:28;;;;;;;31.33;18.83;;;6.20;99.90;;;;;;5076161;28;20468;-66
2021/01/05 14:21:54;;;;;;;30.77;18.90;;;6.30;99.90;;;;;;5075927;28;20922;-66
2021/01/05 14:24:25;;;;;;;27.23;17.70;;;6.20;99.90;;;;;;5076143;28;20429;-65
2021/01/05 14:26:52;;;;;;;41.80;19.80;;;6.10;99.90;;;;;;5074857;28;20424;-66
2021/01/05 14:29:20;;;;;;;31.00;18.33;;;6.10;99.90;;;;;;5074412;28;20782;-66
2021/01/05 14:35:08;;;;;;;27.43;15.57;;;6.00;99.90;;;;;;5075314;28;20423;-66
2021/01/05 14:37:33;;;;;;;31.60;17.90;;;5.90;99.90;;;;;;5075366;28;20458;-65
2021/01/05 14:43:21;;;;;;;33.00;19.20;;;5.70;99.90;;;;;;5075383;28;20181;-66
2021/01/05 14:45:47;;;;;;;30.63;18.40;;;5.70;99.90;;;;;;5075632;28;20413;-66
2021/01/05 14:48:12;;;;;;;31.83;19.00;;;5.70;99.90;;;;;;5075705;28;20599;-66
2021/01/05 14:50:38;;;;;;;33.67;19.37;;;5.70;99.90;;;;;;5075179;28;20250;-66
2021/01/05 14:56:27;;;;;;;24.93;16.60;;;5.80;99.90;;;;;;5075292;28;20211;-65
2021/01/05 15:02:16;;;;;;;30.93;17.40;;;5.70;99.90;;;;;;5075088;28;20454;-67
2021/01/05 15:04:42;;;;;;;28.40;17.57;;;5.70;99.90;;;;;;5074871;28;20430;-66
2021/01/05 15:10:29;;;;;;;33.43;19.57;;;5.80;99.90;;;;;;5074967;28;20408;-66
2021/01/05 15:12:55;;;;;;;30.87;18.27;;;5.80;99.90;;;;;;5074886;28;20431;-66
2021/01/05 15:15:21;;;;;;;32.90;18.53;;;5.70;99.90;;;;;;5074992;28;20174;-66
2021/01/05 15:17:46;;;;;;;29.50;17.97;;;5.70;99.90;;;;;;5075016;28;20523;-66
2021/01/05 15:23:33;;;;;;;29.93;16.20;;;5.70;99.90;;;;;;5074565;28;20172;-66
2021/01/05 15:25:59;;;;;;;30.48;17.55;;;5.60;99.90;;;;;;5074984;28;20410;-66
2021/01/05 15:28:24;;;;;;;29.70;18.47;;;5.70;99.90;;;;;;5074190;28;20237;-66
2021/01/05 15:30:50;;;;;;;29.23;17.50;;;5.80;99.90;;;;;;5074475;28;20182;-66
2021/01/05 15:33:16;;;;;;;29.37;15.57;;;5.80;99.90;;;;;;5074367;28;20174;-66
2021/01/05 15:35:42;;;;;;;28.10;17.60;;;5.80;99.90;;;;;;5074291;28;20177;-66
2021/01/05 15:38:08;;;;;;;27.40;16.93;;;5.70;99.90;;;;;;5074636;28;20174;-66
2021/01/05 15:43:55;;;;;;;25.53;16.00;;;5.70;99.90;;;;;;5074274;28;20500;-66
2021/01/05 15:46:27;;;;;;;25.77;16.80;;;5.70;99.90;;;;;;5074389;28;20477;-66
2021/01/05 15:52:14;;;;;;;23.80;16.13;;;5.70;99.90;;;;;;5074161;28;20470;-66
2021/01/05 15:58:02;;;;;;;26.90;16.53;;;5.70;99.90;;;;;;5074001;28;20164;-66
2021/01/05 16:03:50;;;;;;;25.20;16.73;;;5.90;99.90;;;;;;5073859;28;20177;-72
2021/01/05 16:09:38;;;;;;;25.90;15.40;;;6.00;99.90;;;;;;5074190;28;20452;-72
2021/01/05 16:12:04;;;;;;;32.20;17.80;;;5.80;99.90;;;;;;5074150;28;20435;-71
2021/01/05 16:14:29;;;;;;;30.80;18.03;;;5.80;99.90;;;;;;5074202;28;20238;-71
2021/01/05 16:16:55;;;;;;;26.30;16.67;;;5.70;99.90;;;;;;5074070;28;20428;-72
2021/01/05 16:19:22;;;;;;;25.57;15.83;;;5.70;99.90;;;;;;5073979;28;20214;-72
2021/01/05 16:25:18;;;;;;;24.97;16.50;;;5.60;99.90;;;;;;5073183;28;20443;-72
2021/01/05 16:31:12;;;;;;;30.63;16.40;;;5.60;99.90;;;;;;5063495;28;20544;-73
2021/01/05 16:33:37;;;;;;;25.03;15.90;;;5.60;99.90;;;;;;5073576;28;20514;-74
2021/01/05 16:36:03;;;;;;;25.97;15.60;;;5.60;99.90;;;;;;5073565;28;20185;-74
2021/01/05 16:38:29;;;;;;;25.60;16.80;;;5.60;99.90;;;;;;5073553;28;20249;-73
2021/01/05 16:40:55;;;;;;;23.40;15.47;;;5.60;99.90;;;;;;5073792;28;20560;-72
2021/01/05 16:43:24;;;;;;;21.83;14.50;;;5.60;99.90;;;;;;5073454;28;20455;-73
2021/01/05 16:45:51;;;;;;;30.50;16.17;;;5.60;99.90;;;;;;5073431;28;20174;-73
2021/01/05 16:48:17;;;;;;;29.07;16.67;;;5.60;99.90;;;;;;5073723;28;20601;-72
2021/01/05 16:50:43;;;;;;;22.80;15.20;;;5.60;99.90;;;;;;5073582;28;20533;-72
2021/01/05 16:53:09;;;;;;;25.97;16.10;;;5.70;99.90;;;;;;5073681;28;20180;-72
2021/01/05 16:55:40;;;;;;;32.17;17.00;;;5.60;99.90;;;;;;5073613;28;20625;-73
2021/01/05 17:01:28;;;;;;;24.70;15.40;;;5.60;99.90;;;;;;5073198;28;20432;-71
2021/01/05 17:07:15;;;;;;;30.60;19.90;;;5.60;99.90;;;;;;5073268;28;20632;-70
2021/01/05 17:09:40;;;;;;;28.63;18.17;;;5.60;99.90;;;;;;5073438;28;20512;-71
2021/01/05 17:15:30;;;;;;;31.10;17.60;;;5.60;99.90;;;;;;5073264;28;20173;-71
2021/01/05 17:17:56;;;;;;;28.60;16.03;;;5.60;99.90;;;;;;5073427;28;20848;-70
2021/01/05 17:20:28;;;;;;;25.67;16.10;;;5.60;99.90;;;;;;5073326;28;20477;-70
2021/01/05 17:22:54;;;;;;;26.37;16.93;;;5.60;99.90;;;;;;5073342;28;20176;-70
2021/01/05 17:25:23;;;;;;;29.53;16.07;;;5.60;99.90;;;;;;5073360;28;20776;-69
2021/01/05 17:27:49;;;;;;;22.93;16.37;;;5.60;99.90;;;;;;5073302;28;20412;-68
2021/01/05 17:30:21;;;;;;;26.10;15.47;;;5.60;99.90;;;;;;5073714;28;20834;-68
2021/01/05 17:32:47;;;;;;;22.03;14.20;;;5.60;99.90;;;;;;5072879;28;20502;-68
2021/01/05 17:35:16;;;;;;;27.17;16.57;;;5.50;99.90;;;;;;5073687;28;20424;-68
2021/01/05 17:37:41;;;;;;;28.23;15.27;;;5.50;99.90;;;;;;5076729;28;20422;-69
2021/01/05 17:40:10;;;;;;;25.00;14.33;;;5.60;99.90;;;;;;5077066;28;20471;-69
2021/01/05 17:42:36;;;;;;;23.37;14.37;;;5.50;99.90;;;;;;5077129;28;20545;-68
2021/01/05 17:48:26;;;;;;;23.83;15.20;;;5.50;99.90;;;;;;5076667;28;20168;-68
2021/01/05 17:50:53;;;;;;;20.20;13.33;;;5.50;99.90;;;;;;5076522;28;20775;-68
2021/01/05 17:53:19;;;;;;;21.37;13.07;;;5.50;99.90;;;;;;5076884;28;20420;-66
2021/01/05 17:55:45;;;;;;;23.57;13.90;;;5.50;99.90;;;;;;5076856;28;20415;-66
2021/01/05 18:01:44;;;;;;;25.93;14.70;;;5.50;99.90;;;;;;5076497;28;20427;-68
2021/01/05 18:07:33;;;;;;;22.20;15.97;;;5.60;99.90;;;;;;5076395;28;20806;-67
2021/01/05 18:13:21;;;;;;;19.97;13.03;;;5.60;99.90;;;;;;5076322;28;20415;-66
2021/01/05 18:15:47;;;;;;;17.20;11.90;;;5.50;99.90;;;;;;5076038;28;21018;-67
2021/01/05 18:18:13;;;;;;;21.47;12.77;;;5.50;99.90;;;;;;5076742;28;20185;-66
2021/01/05 18:20:39;;;;;;;22.20;13.33;;;5.40;99.90;;;;;;5076318;28;20471;-66
2021/01/05 18:26:32;;;;;;;20.57;13.50;;;5.40;99.90;;;;;;5076082;28;20181;-66
2021/01/05 18:28:58;;;;;;;24.10;14.70;;;5.40;99.90;;;;;;5076174;28;20424;-66
2021/01/05 18:31:24;;;;;;;17.80;12.30;;;5.40;99.90;;;;;;5075820;28;20471;-65
2021/01/05 18:33:49;;;;;;;24.27;14.50;;;5.40;99.90;;;;;;5076187;28;20922;-67
2021/01/05 18:36:15;;;;;;;16.77;12.07;;;5.30;99.90;;;;;;5075910;28;20183;-66
2021/01/05 18:38:40;;;;;;;20.43;13.57;;;5.30;99.90;;;;;;5076156;28;20578;-66
2021/01/05 18:41:06;;;;;;;18.00;11.27;;;5.30;99.90;;;;;;5075937;28;20220;-66
2021/01/05 18:43:31;;;;;;;19.87;13.00;;;5.30;99.90;;;;;;5075713;28;20649;-66
2021/01/05 18:45:57;;;;;;;20.90;13.97;;;5.20;99.90;;;;;;5075993;28;20196;-69
2021/01/05 18:48:24;;;;;;;27.53;14.50;;;5.20;99.90;;;;;;5075304;28;20178;-69
2021/01/05 18:54:12;;;;;;;25.00;14.10;;;5.10;99.90;;;;;;5075584;28;20410;-71
2021/01/05 18:56:37;;;;;;;27.77;16.23;;;5.10;99.90;;;;;;5075397;28;20424;-69
2021/01/05 18:59:06;;;;;;;24.63;15.23;;;5.10;99.90;;;;;;5075585;28;20261;-72
2021/01/05 19:04:53;;;;;;;27.43;14.57;;;5.20;99.90;;;;;;5075341;28;20463;-72
2021/01/05 19:10:44;;;;;;;23.57;14.10;;;5.20;99.90;;;;;;5075212;28;20679;-68
2021/01/05 19:13:12;;;;;;;22.57;14.80;;;5.20;99.90;;;;;;5075115;28;20429;-69
2021/01/05 19:15:38;;;;;;;27.63;14.77;;;5.30;99.90;;;;;;5075330;28;20425;-70
2021/01/05 19:18:04;;;;;;;24.40;15.90;;;5.20;99.90;;;;;;5075347;28;20474;-69
2021/01/05 19:20:30;;;;;;;24.10;15.27;;;5.10;99.90;;;;;;5075210;28;20254;-69
2021/01/05 19:22:56;;;;;;;23.70;15.57;;;5.10;99.90;;;;;;5074925;28;20419;-69
2021/01/05 19:25:25;;;;;;;23.03;14.60;;;5.10;99.90;;;;;;5075234;28;20181;-69
2021/01/05 19:31:13;;;;;;;29.57;16.57;;;5.10;99.90;;;;;;5073407;28;20475;-70
2021/01/05 19:37:00;;;;;;;28.13;18.47;;;5.10;99.90;;;;;;5074788;28;20419;-70
2021/01/05 19:42:49;;;;;;;29.87;16.67;;;5.00;99.90;;;;;;5074643;28;20655;-69
2021/01/05 19:48:36;;;;;;;30.07;16.83;;;5.10;99.90;;;;;;5074476;28;20459;-70
2021/01/05 19:54:25;;;;;;;32.53;17.67;;;5.10;99.90;;;;;;5074357;28;20189;-70
2021/01/05 19:56:53;;;;;;;31.17;18.73;;;5.10;99.90;;;;;;5074480;28;20477;-71
2021/01/05 19:59:19;;;;;;;29.60;18.20;;;5.10;99.90;;;;;;5073751;28;20452;-73
2021/01/05 20:01:45;;;;;;;27.13;17.70;;;5.10;99.90;;;;;;5074214;28;20439;-72
2021/01/05 20:04:14;;;;;;;30.07;17.93;;;5.10;99.90;;;;;;5074359;28;20218;-73
2021/01/05 20:06:52;;;;;;;36.97;19.63;;;5.10;99.90;;;;;;5074381;28;20519;-72
2021/01/05 20:09:21;;;;;;;31.40;17.97;;;5.20;99.90;;;;;;5074315;28;20444;-70
2021/01/05 20:11:47;;;;;;;28.97;17.97;;;5.20;99.90;;;;;;5074265;28;20422;-70
2021/01/05 20:14:14;;;;;;;28.37;17.23;;;5.20;99.90;;;;;;5072711;28;20471;-69
2021/01/05 20:16:45;;;;;;;31.83;18.90;;;5.20;99.90;;;;;;5074172;28;20427;-69
2021/01/05 20:19:11;;;;;;;32.37;18.57;;;5.20;99.90;;;;;;5074101;28;20450;-69
2021/01/05 20:21:36;;;;;;;29.00;17.20;;;5.20;99.90;;;;;;5074123;28;20513;-70
2021/01/05 20:27:24;;;;;;;32.20;18.57;;;5.20;99.90;;;;;;5073792;28;20525;-69